Time,TemperatureF,DewpointF,PressureIn,WindDirection,WindDirectionDegrees,WindSpeedMPH,WindSpeedGustMPH,Humidity,HourlyPrecipIn,Conditions,Clouds,dailyrainin,SoftwareType,DateUTC
2013-04-18 07:15:00,65.9,63.2,29.50,SSE,160,12.0,15.0,91,0.00,,,0.25,Wunderground v.1.15,2013-04-18 12:15:00,
2013-04-18 07:16:00,66.0,63.3,29.50,South,173,13.0,15.0,91,0.00,,,0.25,Wunderground v.1.15,2013-04-18 12:16:00,
2013-04-18 07:17:00,66.1,63.4,29.50,SSE,148,13.0,17.0,91,0.00,,,0.25,Wunderground v.1.15,2013-04-18 12:17:00,
2013-04-18 07:18:00,66.1,63.4,29.50,SSE,162,13.0,17.0,91,0.00,,,0.25,Wunderground v.1.15,2013-04-18 12:18:00,
2013-04-18 07:19:00,66.1,63.1,29.50,SSE,166,13.0,17.0,90,0.00,,,0.25,Wunderground v.1.15,2013-04-18 12:19:00,
2013-04-18 07:25:00,65.8,62.5,29.53,WSW,258,10.0,10.0,89,0.00,,,0.25,Wunderground v.1.15,2013-04-18 12:25:00,
2013-04-18 07:30:00,64.6,61.0,29.53,SW,224,7.0,10.0,88,0.52,,,0.31,Wunderground v.1.15,2013-04-18 12:30:00,
2013-04-18 07:36:00,63.0,59.7,29.53,South,177,5.0,5.0,89,0.18,,,0.35,Wunderground v.1.15,2013-04-18 12:36:00,
2013-04-18 07:41:00,62.3,59.6,29.52,SSW,203,3.0,5.0,91,0.48,,,0.43,Wunderground v.1.15,2013-04-18 12:41:00,
2013-04-18 07:47:00,61.6,59.3,29.51,SSW,203,1.0,3.0,92,0.15,,,0.45,Wunderground v.1.15,2013-04-18 12:47:00,
2013-04-18 09:41:00,59.1,58.0,29.57,WSW,257,6.0,7.0,96,0.19,,,0.66,Wunderground v.1.15,2013-04-18 14:41:00,
2013-04-18 09:47:00,59.1,58.0,29.57,WSW,248,6.0,10.0,96,0.11,,,0.67,Wunderground v.1.15,2013-04-18 14:47:00,
2013-04-18 09:53:00,59.1,58.0,29.57,SW,222,6.0,7.0,96,0.05,,,0.67,Wunderground v.1.15,2013-04-18 14:53:00,
2013-04-18 09:58:00,59.0,57.9,29.58,SW,221,6.0,7.0,96,0.04,,,0.68,Wunderground v.1.15,2013-04-18 14:58:00,
2013-04-18 10:04:00,58.8,57.7,29.57,SSW,209,6.0,8.0,96,0.10,,,0.69,Wunderground v.1.15,2013-04-18 15:04:00,
2013-04-18 10:09:00,58.6,57.5,29.58,SSW,195,5.0,8.0,96,0.10,,,0.69,Wunderground v.1.15,2013-04-18 15:09:00,
2013-04-18 10:15:00,58.6,57.5,29.60,SW,234,6.0,9.0,96,0.08,,,0.70,Wunderground v.1.15,2013-04-18 15:15:00,
2013-04-18 10:20:00,58.7,57.6,29.60,WSW,241,7.0,12.0,96,0.10,,,0.71,Wunderground v.1.15,2013-04-18 15:20:00,
2013-04-18 10:26:00,58.7,57.6,29.61,SSW,206,8.0,12.0,96,0.07,,,0.72,Wunderground v.1.15,2013-04-18 15:26:00,
2013-04-18 10:32:00,58.8,57.7,29.60,South,174,7.0,8.0,96,0.07,,,0.72,Wunderground v.1.15,2013-04-18 15:32:00,
2013-04-18 10:37:00,58.7,57.6,29.58,SSW,209,6.0,8.0,96,0.08,,,0.73,Wunderground v.1.15,2013-04-18 15:37:00,
2013-04-18 10:42:00,58.7,57.6,29.58,South,169,6.0,6.0,96,0.06,,,0.73,Wunderground v.1.15,2013-04-18 15:42:00,
2013-04-18 10:48:00,58.8,57.7,29.55,SSE,155,5.0,7.0,96,0.04,,,0.74,Wunderground v.1.15,2013-04-18 15:48:00,
2013-04-18 10:53:00,59.1,58.0,29.56,SSE,161,7.0,10.0,96,0.04,,,0.74,Wunderground v.1.15,2013-04-18 15:53:00,
2013-04-18 10:58:00,59.4,58.3,29.58,South,177,8.0,12.0,96,0.06,,,0.75,Wunderground v.1.15,2013-04-18 15:58:00,
2013-04-18 14:26:00,61.3,60.2,29.59,SSW,200,10.0,12.0,96,0.05,,,1.08,Wunderground v.1.15,2013-04-18 19:26:00,
2013-04-18 14:32:00,61.3,60.2,29.59,SSW,200,8.0,10.0,96,0.10,,,1.09,Wunderground v.1.15,2013-04-18 19:32:00,
2013-04-18 14:38:00,61.3,59.9,29.58,South,175,8.0,11.0,95,0.08,,,1.10,Wunderground v.1.15,2013-04-18 19:38:00,
2013-04-18 14:44:00,61.3,59.9,29.58,South,171,11.0,18.0,95,0.07,,,1.10,Wunderground v.1.15,2013-04-18 19:44:00,
2013-04-18 14:49:00,61.4,60.0,29.57,SSE,165,16.0,22.0,95,0.06,,,1.11,Wunderground v.1.15,2013-04-18 19:49:00,
2013-04-18 14:55:00,61.3,59.9,29.57,SSE,157,19.0,24.0,95,0.08,,,1.12,Wunderground v.1.15,2013-04-18 19:55:00,
2013-04-18 15:00:00,61.3,59.9,29.56,SSE,165,20.0,20.0,95,0.14,,,1.13,Wunderground v.1.15,2013-04-18 20:00:00,
2013-04-18 15:06:00,61.2,59.8,29.51,SE,134,21.0,22.0,95,0.12,,,1.14,Wunderground v.1.15,2013-04-18 20:06:00,
2013-04-18 15:11:00,61.0,59.6,29.47,SE,125,21.0,24.0,95,0.08,,,1.14,Wunderground v.1.15,2013-04-18 20:11:00,
2013-04-18 15:17:00,61.0,59.6,29.49,SSE,150,22.0,28.0,95,0.04,,,1.14,Wunderground v.1.15,2013-04-18 20:17:00,
2013-04-18 15:23:00,61.1,59.7,29.50,SE,128,24.0,26.0,95,0.00,,,1.14,Wunderground v.1.15,2013-04-18 20:23:00,
2013-04-18 15:28:00,61.1,59.7,29.50,SE,143,22.0,26.0,95,0.00,,,1.14,Wunderground v.1.15,2013-04-18 20:28:00,
2013-04-18 15:33:00,61.2,59.5,29.50,SSE,154,21.0,24.0,94,0.00,,,1.14,Wunderground v.1.15,2013-04-18 20:33:00,
2013-04-18 15:39:00,61.2,59.5,29.51,SSE,153,22.0,25.0,94,0.00,,,1.15,Wunderground v.1.15,2013-04-18 20:39:00,
2013-04-18 15:45:00,61.2,59.5,29.52,SSE,153,21.0,24.0,94,0.00,,,1.15,Wunderground v.1.15,2013-04-18 20:45:00,
2013-04-18 15:51:00,61.3,59.6,29.53,SSE,163,20.0,20.0,94,0.00,,,1.15,Wunderground v.1.15,2013-04-18 20:51:00,
2013-04-18 15:57:00,61.4,59.7,29.54,South,174,19.0,22.0,94,0.00,,,1.15,Wunderground v.1.15,2013-04-18 20:57:00,
2013-04-18 16:02:00,61.6,59.6,29.54,SSE,159,18.0,22.0,93,0.00,,,1.15,Wunderground v.1.15,2013-04-18 21:02:00,
2013-04-18 16:08:00,61.7,59.7,29.53,SSE,153,17.0,22.0,93,0.00,,,1.15,Wunderground v.1.15,2013-04-18 21:08:00,
2013-04-18 16:14:00,61.6,59.6,29.53,SSE,163,16.0,21.0,93,0.00,,,1.15,Wunderground v.1.15,2013-04-18 21:14:00,
2013-04-18 16:20:00,61.6,59.6,29.53,SSE,161,16.0,16.0,93,0.00,,,1.15,Wunderground v.1.15,2013-04-18 21:20:00,
2013-04-18 16:26:00,61.6,59.6,29.52,SSE,155,16.0,18.0,93,0.00,,,1.15,Wunderground v.1.15,2013-04-18 21:26:00,
2013-04-18 16:32:00,61.9,59.5,29.51,SSE,157,16.0,21.0,92,0.00,,,1.15,Wunderground v.1.15,2013-04-18 21:32:00,
2013-04-18 16:38:00,62.3,59.6,29.48,SSE,155,20.0,27.0,91,0.00,,,1.15,Wunderground v.1.15,2013-04-18 21:38:00,